sensor_id;sensor_type;location;lat;lon;timestamp;temperature;humidity
23311;DHT22;11828;51.508;18.118;2023-07-30T00:02:05;33.10;39.30
23311;DHT22;11828;51.508;18.118;2023-07-30T00:04:31;33.20;39.30
23311;DHT22;11828;51.508;18.118;2023-07-30T00:06:57;33.20;39.20
23311;DHT22;11828;51.508;18.118;2023-07-30T00:09:24;33.30;39.20
23311;DHT22;11828;51.508;18.118;2023-07-30T00:11:50;33.30;39.00
23311;DHT22;11828;51.508;18.118;2023-07-30T00:14:17;33.30;39.10
23311;DHT22;11828;51.508;18.118;2023-07-30T00:16:44;33.30;39.20
23311;DHT22;11828;51.508;18.118;2023-07-30T00:19:10;33.30;39.20
23311;DHT22;11828;51.508;18.118;2023-07-30T00:21:36;33.20;39.30
23311;DHT22;11828;51.508;18.118;2023-07-30T00:24:03;33.10;39.50
23311;DHT22;11828;51.508;18.118;2023-07-30T00:26:29;33.00;39.60
23311;DHT22;11828;51.508;18.118;2023-07-30T00:28:55;32.90;39.80
23311;DHT22;11828;51.508;18.118;2023-07-30T00:31:22;32.80;39.80
23311;DHT22;11828;51.508;18.118;2023-07-30T00:33:48;32.70;39.80
23311;DHT22;11828;51.508;18.118;2023-07-30T00:36:14;32.70;40.10
23311;DHT22;11828;51.508;18.118;2023-07-30T00:38:41;32.80;40.00
23311;DHT22;11828;51.508;18.118;2023-07-30T00:41:07;32.80;40.00
23311;DHT22;11828;51.508;18.118;2023-07-30T00:43:33;32.60;40.10
23311;DHT22;11828;51.508;18.118;2023-07-30T00:45:59;32.60;40.20
23311;DHT22;11828;51.508;18.118;2023-07-30T00:48:26;32.70;40.20
23311;DHT22;11828;51.508;18.118;2023-07-30T00:50:52;32.60;40.20
23311;DHT22;11828;51.508;18.118;2023-07-30T00:53:20;32.60;40.20
23311;DHT22;11828;51.508;18.118;2023-07-30T00:55:48;32.60;40.30
23311;DHT22;11828;51.508;18.118;2023-07-30T00:58:15;32.60;40.30
23311;DHT22;11828;51.508;18.118;2023-07-30T01:00:41;32.50;40.40
23311;DHT22;11828;51.508;18.118;2023-07-30T01:03:08;32.50;40.40
23311;DHT22;11828;51.508;18.118;2023-07-30T01:05:34;32.60;40.50
23311;DHT22;11828;51.508;18.118;2023-07-30T01:08:00;32.60;40.30
23311;DHT22;11828;51.508;18.118;2023-07-30T01:10:28;32.60;40.40
23311;DHT22;11828;51.508;18.118;2023-07-30T01:12:56;32.60;40.40
23311;DHT22;11828;51.508;18.118;2023-07-30T01:15:23;32.60;40.30
23311;DHT22;11828;51.508;18.118;2023-07-30T01:17:50;32.70;40.10
23311;DHT22;11828;51.508;18.118;2023-07-30T01:20:16;32.70;40.00
23311;DHT22;11828;51.508;18.118;2023-07-30T01:22:42;32.80;40.10
23311;DHT22;11828;51.508;18.118;2023-07-30T01:25:08;32.80;39.90
23311;DHT22;11828;51.508;18.118;2023-07-30T01:27:39;32.70;39.70
23311;DHT22;11828;51.508;18.118;2023-07-30T01:30:22;32.70;39.70
23311;DHT22;11828;51.508;18.118;2023-07-30T01:32:53;32.70;39.90
23311;DHT22;11828;51.508;18.118;2023-07-30T01:35:21;32.70;39.60
23311;DHT22;11828;51.508;18.118;2023-07-30T01:37:49;32.60;39.70
23311;DHT22;11828;51.508;18.118;2023-07-30T01:40:16;32.60;39.80
23311;DHT22;11828;51.508;18.118;2023-07-30T01:42:42;32.50;39.80
23311;DHT22;11828;51.508;18.118;2023-07-30T01:45:09;32.60;39.70
23311;DHT22;11828;51.508;18.118;2023-07-30T01:47:35;32.70;39.50
23311;DHT22;11828;51.508;18.118;2023-07-30T01:50:01;32.70;39.40
23311;DHT22;11828;51.508;18.118;2023-07-30T01:52:28;32.70;39.50
23311;DHT22;11828;51.508;18.118;2023-07-30T01:54:54;32.60;39.40
23311;DHT22;11828;51.508;18.118;2023-07-30T01:57:22;32.60;39.50
23311;DHT22;11828;51.508;18.118;2023-07-30T01:59:48;32.60;39.50
23311;DHT22;11828;51.508;18.118;2023-07-30T02:02:14;32.60;39.50
23311;DHT22;11828;51.508;18.118;2023-07-30T02:04:41;32.50;39.50
23311;DHT22;11828;51.508;18.118;2023-07-30T02:07:07;32.50;39.40
23311;DHT22;11828;51.508;18.118;2023-07-30T02:09:33;32.50;39.40
23311;DHT22;11828;51.508;18.118;2023-07-30T02:12:00;32.40;39.40
23311;DHT22;11828;51.508;18.118;2023-07-30T02:14:26;32.50;39.40
23311;DHT22;11828;51.508;18.118;2023-07-30T02:16:52;32.60;39.20
23311;DHT22;11828;51.508;18.118;2023-07-30T02:19:18;32.70;39.10
23311;DHT22;11828;51.508;18.118;2023-07-30T02:21:45;32.80;38.90
23311;DHT22;11828;51.508;18.118;2023-07-30T02:24:11;32.90;38.80
23311;DHT22;11828;51.508;18.118;2023-07-30T02:26:38;32.90;38.60
23311;DHT22;11828;51.508;18.118;2023-07-30T02:29:04;32.90;38.50
23311;DHT22;11828;51.508;18.118;2023-07-30T02:31:31;32.90;38.60
23311;DHT22;11828;51.508;18.118;2023-07-30T02:33:57;32.80;38.40
23311;DHT22;11828;51.508;18.118;2023-07-30T02:36:24;32.80;38.50
23311;DHT22;11828;51.508;18.118;2023-07-30T02:38:50;32.70;38.60
23311;DHT22;11828;51.508;18.118;2023-07-30T02:41:17;32.60;38.80
23311;DHT22;11828;51.508;18.118;2023-07-30T02:43:43;32.50;38.80
23311;DHT22;11828;51.508;18.118;2023-07-30T02:46:09;32.50;38.80
23311;DHT22;11828;51.508;18.118;2023-07-30T02:48:36;32.30;38.90
23311;DHT22;11828;51.508;18.118;2023-07-30T02:51:02;32.30;39.20
23311;DHT22;11828;51.508;18.118;2023-07-30T02:53:28;32.30;39.20
23311;DHT22;11828;51.508;18.118;2023-07-30T02:55:55;32.20;39.30
23311;DHT22;11828;51.508;18.118;2023-07-30T02:58:21;32.20;39.30
23311;DHT22;11828;51.508;18.118;2023-07-30T03:00:48;32.20;39.30
23311;DHT22;11828;51.508;18.118;2023-07-30T03:03:13;32.10;39.30
23311;DHT22;11828;51.508;18.118;2023-07-30T03:05:43;32.00;39.40
23311;DHT22;11828;51.508;18.118;2023-07-30T03:08:09;32.00;39.40
23311;DHT22;11828;51.508;18.118;2023-07-30T03:10:36;32.10;39.40
23311;DHT22;11828;51.508;18.118;2023-07-30T03:13:02;32.00;39.40
23311;DHT22;11828;51.508;18.118;2023-07-30T03:15:29;32.00;39.60
23311;DHT22;11828;51.508;18.118;2023-07-30T03:17:55;32.00;39.60
23311;DHT22;11828;51.508;18.118;2023-07-30T03:20:21;31.90;39.60
23311;DHT22;11828;51.508;18.118;2023-07-30T03:22:47;31.90;39.70
23311;DHT22;11828;51.508;18.118;2023-07-30T03:25:13;31.90;39.80
23311;DHT22;11828;51.508;18.118;2023-07-30T03:27:39;31.90;39.80
23311;DHT22;11828;51.508;18.118;2023-07-30T03:30:06;31.80;39.90
23311;DHT22;11828;51.508;18.118;2023-07-30T03:32:32;31.70;40.20
23311;DHT22;11828;51.508;18.118;2023-07-30T03:34:58;31.80;40.30
23311;DHT22;11828;51.508;18.118;2023-07-30T03:37:24;31.80;40.10
23311;DHT22;11828;51.508;18.118;2023-07-30T03:39:51;31.80;40.00
23311;DHT22;11828;51.508;18.118;2023-07-30T03:42:17;31.80;40.00
23311;DHT22;11828;51.508;18.118;2023-07-30T03:44:44;31.70;40.20
23311;DHT22;11828;51.508;18.118;2023-07-30T03:47:10;31.60;40.20
23311;DHT22;11828;51.508;18.118;2023-07-30T03:49:36;31.70;40.40
23311;DHT22;11828;51.508;18.118;2023-07-30T03:52:07;31.80;40.40
23311;DHT22;11828;51.508;18.118;2023-07-30T03:54:33;31.80;40.30
23311;DHT22;11828;51.508;18.118;2023-07-30T03:56:59;31.80;40.30
23311;DHT22;11828;51.508;18.118;2023-07-30T03:59:26;31.90;40.30
23311;DHT22;11828;51.508;18.118;2023-07-30T04:01:54;32.00;40.10
23311;DHT22;11828;51.508;18.118;2023-07-30T04:04:20;32.00;40.00
23311;DHT22;11828;51.508;18.118;2023-07-30T04:06:46;32.20;40.10
23311;DHT22;11828;51.508;18.118;2023-07-30T04:09:13;32.20;40.00
23311;DHT22;11828;51.508;18.118;2023-07-30T04:11:39;32.20;39.80
23311;DHT22;11828;51.508;18.118;2023-07-30T04:14:06;32.40;39.80
23311;DHT22;11828;51.508;18.118;2023-07-30T04:16:34;32.40;39.60
23311;DHT22;11828;51.508;18.118;2023-07-30T04:19:01;32.60;39.50
23311;DHT22;11828;51.508;18.118;2023-07-30T04:21:27;32.60;39.50
23311;DHT22;11828;51.508;18.118;2023-07-30T04:23:53;32.60;39.40
23311;DHT22;11828;51.508;18.118;2023-07-30T04:26:19;32.70;39.40
23311;DHT22;11828;51.508;18.118;2023-07-30T04:28:45;32.70;39.30
23311;DHT22;11828;51.508;18.118;2023-07-30T04:31:11;32.80;39.10
23311;DHT22;11828;51.508;18.118;2023-07-30T04:33:37;32.80;39.20
23311;DHT22;11828;51.508;18.118;2023-07-30T04:36:04;32.90;39.20
23311;DHT22;11828;51.508;18.118;2023-07-30T04:38:30;33.00;39.10
23311;DHT22;11828;51.508;18.118;2023-07-30T04:40:59;33.10;39.00
23311;DHT22;11828;51.508;18.118;2023-07-30T04:43:26;33.30;38.80
23311;DHT22;11828;51.508;18.118;2023-07-30T04:45:52;33.30;38.60
23311;DHT22;11828;51.508;18.118;2023-07-30T04:48:18;33.40;38.70
23311;DHT22;11828;51.508;18.118;2023-07-30T04:50:44;33.40;38.50
23311;DHT22;11828;51.508;18.118;2023-07-30T04:53:11;33.40;38.30
23311;DHT22;11828;51.508;18.118;2023-07-30T04:55:37;33.40;38.40
23311;DHT22;11828;51.508;18.118;2023-07-30T04:58:03;33.40;38.40
23311;DHT22;11828;51.508;18.118;2023-07-30T05:00:29;33.40;38.50
23311;DHT22;11828;51.508;18.118;2023-07-30T05:02:56;33.40;38.70
23311;DHT22;11828;51.508;18.118;2023-07-30T05:05:22;33.40;38.60
23311;DHT22;11828;51.508;18.118;2023-07-30T05:07:48;33.50;38.50
23311;DHT22;11828;51.508;18.118;2023-07-30T05:10:14;33.60;38.40
23311;DHT22;11828;51.508;18.118;2023-07-30T05:12:41;33.60;38.30
23311;DHT22;11828;51.508;18.118;2023-07-30T05:15:08;33.70;38.30
23311;DHT22;11828;51.508;18.118;2023-07-30T05:17:34;33.80;38.40
23311;DHT22;11828;51.508;18.118;2023-07-30T05:20:00;33.80;38.20
23311;DHT22;11828;51.508;18.118;2023-07-30T05:22:26;33.90;38.00
23311;DHT22;11828;51.508;18.118;2023-07-30T05:24:52;34.00;38.00
23311;DHT22;11828;51.508;18.118;2023-07-30T05:27:18;34.00;37.90
23311;DHT22;11828;51.508;18.118;2023-07-30T05:29:45;34.20;38.00
23311;DHT22;11828;51.508;18.118;2023-07-30T05:32:11;34.20;37.70
23311;DHT22;11828;51.508;18.118;2023-07-30T05:34:38;34.30;37.60
23311;DHT22;11828;51.508;18.118;2023-07-30T05:37:04;34.40;37.60
23311;DHT22;11828;51.508;18.118;2023-07-30T05:39:31;34.40;37.50
23311;DHT22;11828;51.508;18.118;2023-07-30T05:41:57;34.40;37.50
23311;DHT22;11828;51.508;18.118;2023-07-30T05:44:23;34.40;37.40
23311;DHT22;11828;51.508;18.118;2023-07-30T05:46:49;34.40;37.50
23311;DHT22;11828;51.508;18.118;2023-07-30T05:49:15;34.40;37.60
23311;DHT22;11828;51.508;18.118;2023-07-30T05:51:41;34.30;37.60
23311;DHT22;11828;51.508;18.118;2023-07-30T05:54:08;34.40;37.70
23311;DHT22;11828;51.508;18.118;2023-07-30T05:56:34;34.50;37.70
23311;DHT22;11828;51.508;18.118;2023-07-30T05:59:00;34.60;37.60
23311;DHT22;11828;51.508;18.118;2023-07-30T06:01:27;34.70;37.30
23311;DHT22;11828;51.508;18.118;2023-07-30T06:03:53;34.70;37.20
23311;DHT22;11828;51.508;18.118;2023-07-30T06:06:19;34.70;37.30
23311;DHT22;11828;51.508;18.118;2023-07-30T06:08:53;34.90;37.20
23311;DHT22;11828;51.508;18.118;2023-07-30T06:11:20;35.00;37.20
23311;DHT22;11828;51.508;18.118;2023-07-30T06:13:46;35.10;37.10
23311;DHT22;11828;51.508;18.118;2023-07-30T06:16:13;35.30;37.10
23311;DHT22;11828;51.508;18.118;2023-07-30T06:18:40;35.30;36.80
23311;DHT22;11828;51.508;18.118;2023-07-30T06:21:06;35.40;36.80
23311;DHT22;11828;51.508;18.118;2023-07-30T06:23:32;35.60;36.50
23311;DHT22;11828;51.508;18.118;2023-07-30T06:25:58;35.70;36.40
23311;DHT22;11828;51.508;18.118;2023-07-30T06:28:24;35.80;36.20
23311;DHT22;11828;51.508;18.118;2023-07-30T06:30:50;35.80;36.10
23311;DHT22;11828;51.508;18.118;2023-07-30T06:33:17;35.90;36.00
23311;DHT22;11828;51.508;18.118;2023-07-30T06:35:42;36.00;36.00
23311;DHT22;11828;51.508;18.118;2023-07-30T06:38:09;36.20;36.00
23311;DHT22;11828;51.508;18.118;2023-07-30T06:40:35;36.40;35.50
23311;DHT22;11828;51.508;18.118;2023-07-30T06:43:01;36.50;35.50
23311;DHT22;11828;51.508;18.118;2023-07-30T06:45:28;36.70;35.40
23311;DHT22;11828;51.508;18.118;2023-07-30T06:47:54;36.80;35.10
23311;DHT22;11828;51.508;18.118;2023-07-30T06:50:20;36.90;34.90
23311;DHT22;11828;51.508;18.118;2023-07-30T06:52:46;37.10;34.80
23311;DHT22;11828;51.508;18.118;2023-07-30T06:55:12;37.30;34.70
23311;DHT22;11828;51.508;18.118;2023-07-30T06:57:38;37.70;34.60
23311;DHT22;11828;51.508;18.118;2023-07-30T07:00:05;38.20;34.00
23311;DHT22;11828;51.508;18.118;2023-07-30T07:02:32;38.80;33.50
23311;DHT22;11828;51.508;18.118;2023-07-30T07:04:58;39.70;32.70
23311;DHT22;11828;51.508;18.118;2023-07-30T07:07:25;40.60;31.90
23311;DHT22;11828;51.508;18.118;2023-07-30T07:09:51;41.20;31.10
23311;DHT22;11828;51.508;18.118;2023-07-30T07:12:17;41.80;30.20
23311;DHT22;11828;51.508;18.118;2023-07-30T07:14:43;42.20;29.30
23311;DHT22;11828;51.508;18.118;2023-07-30T07:17:09;42.80;29.00
23311;DHT22;11828;51.508;18.118;2023-07-30T07:19:35;43.60;28.40
23311;DHT22;11828;51.508;18.118;2023-07-30T07:22:05;44.20;27.50
23311;DHT22;11828;51.508;18.118;2023-07-30T07:24:32;44.60;27.00
23311;DHT22;11828;51.508;18.118;2023-07-30T07:26:59;44.90;26.00
23311;DHT22;11828;51.508;18.118;2023-07-30T07:29:25;45.20;26.20
23311;DHT22;11828;51.508;18.118;2023-07-30T07:31:51;45.40;25.90
23311;DHT22;11828;51.508;18.118;2023-07-30T07:34:17;45.90;25.80
23311;DHT22;11828;51.508;18.118;2023-07-30T07:36:43;46.20;25.50
23311;DHT22;11828;51.508;18.118;2023-07-30T07:39:09;46.60;25.20
23311;DHT22;11828;51.508;18.118;2023-07-30T07:41:37;47.10;24.80
23311;DHT22;11828;51.508;18.118;2023-07-30T07:44:03;47.50;24.50
23311;DHT22;11828;51.508;18.118;2023-07-30T07:46:30;47.60;24.00
23311;DHT22;11828;51.508;18.118;2023-07-30T07:48:55;47.90;23.90
23311;DHT22;11828;51.508;18.118;2023-07-30T07:51:23;48.30;23.70
23311;DHT22;11828;51.508;18.118;2023-07-30T07:54:08;48.70;23.50
23311;DHT22;11828;51.508;18.118;2023-07-30T07:56:34;49.20;23.20
23311;DHT22;11828;51.508;18.118;2023-07-30T07:59:00;49.40;22.70
23311;DHT22;11828;51.508;18.118;2023-07-30T08:01:27;49.60;22.60
23311;DHT22;11828;51.508;18.118;2023-07-30T08:03:53;49.80;22.30
23311;DHT22;11828;51.508;18.118;2023-07-30T08:06:19;50.00;21.80
23311;DHT22;11828;51.508;18.118;2023-07-30T08:08:45;49.90;21.50
23311;DHT22;11828;51.508;18.118;2023-07-30T08:11:11;49.90;21.60
23311;DHT22;11828;51.508;18.118;2023-07-30T08:13:37;49.70;21.40
23311;DHT22;11828;51.508;18.118;2023-07-30T08:16:05;49.40;21.50
23311;DHT22;11828;51.508;18.118;2023-07-30T08:18:31;49.00;21.90
23311;DHT22;11828;51.508;18.118;2023-07-30T08:20:57;48.70;22.20
23311;DHT22;11828;51.508;18.118;2023-07-30T08:23:23;48.50;22.10
23311;DHT22;11828;51.508;18.118;2023-07-30T08:25:49;48.60;22.10
23311;DHT22;11828;51.508;18.118;2023-07-30T08:28:16;48.50;21.90
23311;DHT22;11828;51.508;18.118;2023-07-30T08:30:42;48.00;21.80
23311;DHT22;11828;51.508;18.118;2023-07-30T08:33:08;47.60;22.20
23311;DHT22;11828;51.508;18.118;2023-07-30T08:35:34;47.60;22.50
23311;DHT22;11828;51.508;18.118;2023-07-30T08:38:01;47.60;22.10
23311;DHT22;11828;51.508;18.118;2023-07-30T08:40:27;47.00;22.00
23311;DHT22;11828;51.508;18.118;2023-07-30T08:42:54;46.80;22.40
23311;DHT22;11828;51.508;18.118;2023-07-30T08:45:20;46.70;22.70
23311;DHT22;11828;51.508;18.118;2023-07-30T08:47:47;46.90;22.80
23311;DHT22;11828;51.508;18.118;2023-07-30T08:50:14;47.10;22.90
23311;DHT22;11828;51.508;18.118;2023-07-30T08:55:08;47.90;22.10
23311;DHT22;11828;51.508;18.118;2023-07-30T08:57:36;48.30;21.90
23311;DHT22;11828;51.508;18.118;2023-07-30T09:00:05;48.20;21.40
23311;DHT22;11828;51.508;18.118;2023-07-30T09:02:38;47.60;21.40
23311;DHT22;11828;51.508;18.118;2023-07-30T09:05:08;47.20;21.80
23311;DHT22;11828;51.508;18.118;2023-07-30T09:07:34;46.60;21.90
23311;DHT22;11828;51.508;18.118;2023-07-30T09:10:00;45.80;22.30
23311;DHT22;11828;51.508;18.118;2023-07-30T09:12:30;45.10;22.80
23311;DHT22;11828;51.508;18.118;2023-07-30T09:14:58;44.90;23.40
23311;DHT22;11828;51.508;18.118;2023-07-30T09:17:24;44.90;23.20
23311;DHT22;11828;51.508;18.118;2023-07-30T09:19:52;44.50;23.30
23311;DHT22;11828;51.508;18.118;2023-07-30T09:22:32;44.20;23.70
23311;DHT22;11828;51.508;18.118;2023-07-30T09:25:02;44.00;24.00
23311;DHT22;11828;51.508;18.118;2023-07-30T09:27:29;44.40;23.90
23311;DHT22;11828;51.508;18.118;2023-07-30T09:29:56;44.50;23.70
23311;DHT22;11828;51.508;18.118;2023-07-30T09:32:27;44.80;23.80
23311;DHT22;11828;51.508;18.118;2023-07-30T09:34:55;45.50;23.90
23311;DHT22;11828;51.508;18.118;2023-07-30T09:37:36;46.50;23.60
23311;DHT22;11828;51.508;18.118;2023-07-30T09:40:05;47.10;22.60
23311;DHT22;11828;51.508;18.118;2023-07-30T09:42:32;47.60;22.10
23311;DHT22;11828;51.508;18.118;2023-07-30T09:45:01;48.10;21.70
23311;DHT22;11828;51.508;18.118;2023-07-30T09:47:27;48.50;21.30
23311;DHT22;11828;51.508;18.118;2023-07-30T09:49:56;48.90;21.00
23311;DHT22;11828;51.508;18.118;2023-07-30T09:52:22;49.20;20.60
23311;DHT22;11828;51.508;18.118;2023-07-30T09:54:52;49.40;20.40
23311;DHT22;11828;51.508;18.118;2023-07-30T09:57:18;49.50;20.50
23311;DHT22;11828;51.508;18.118;2023-07-30T09:59:44;49.60;20.20
23311;DHT22;11828;51.508;18.118;2023-07-30T10:02:11;49.70;19.60
23311;DHT22;11828;51.508;18.118;2023-07-30T10:04:43;49.50;19.40
23311;DHT22;11828;51.508;18.118;2023-07-30T10:07:14;49.00;19.00
23311;DHT22;11828;51.508;18.118;2023-07-30T10:09:45;48.50;19.50
23311;DHT22;11828;51.508;18.118;2023-07-30T10:12:15;47.90;19.80
23311;DHT22;11828;51.508;18.118;2023-07-30T10:14:43;47.60;20.30
23311;DHT22;11828;51.508;18.118;2023-07-30T10:17:10;47.40;20.90
23311;DHT22;11828;51.508;18.118;2023-07-30T10:19:37;47.30;21.00
23311;DHT22;11828;51.508;18.118;2023-07-30T10:24:40;47.20;21.00
23311;DHT22;11828;51.508;18.118;2023-07-30T10:27:07;47.00;21.10
23311;DHT22;11828;51.508;18.118;2023-07-30T10:29:36;46.70;21.10
23311;DHT22;11828;51.508;18.118;2023-07-30T10:32:04;46.30;21.30
23311;DHT22;11828;51.508;18.118;2023-07-30T10:34:47;46.00;21.50
23311;DHT22;11828;51.508;18.118;2023-07-30T10:37:20;45.70;21.90
23311;DHT22;11828;51.508;18.118;2023-07-30T10:39:50;45.50;22.30
23311;DHT22;11828;51.508;18.118;2023-07-30T10:42:16;45.40;22.20
23311;DHT22;11828;51.508;18.118;2023-07-30T10:44:44;45.10;22.80
23311;DHT22;11828;51.508;18.118;2023-07-30T10:47:11;45.00;22.50
23311;DHT22;11828;51.508;18.118;2023-07-30T10:49:41;44.90;22.80
23311;DHT22;11828;51.508;18.118;2023-07-30T10:52:09;44.70;22.60
23311;DHT22;11828;51.508;18.118;2023-07-30T10:54:36;44.80;22.60
23311;DHT22;11828;51.508;18.118;2023-07-30T10:57:03;44.90;22.20
23311;DHT22;11828;51.508;18.118;2023-07-30T10:59:36;44.90;22.30
23311;DHT22;11828;51.508;18.118;2023-07-30T11:02:03;44.90;22.20
23311;DHT22;11828;51.508;18.118;2023-07-30T11:04:34;45.00;21.70
23311;DHT22;11828;51.508;18.118;2023-07-30T11:07:00;45.20;21.80
23311;DHT22;11828;51.508;18.118;2023-07-30T11:09:27;45.30;21.70
23311;DHT22;11828;51.508;18.118;2023-07-30T11:11:55;45.40;21.80
23311;DHT22;11828;51.508;18.118;2023-07-30T11:14:23;45.50;21.70
23311;DHT22;11828;51.508;18.118;2023-07-30T11:16:58;45.50;20.90
23311;DHT22;11828;51.508;18.118;2023-07-30T11:19:25;45.50;21.20
23311;DHT22;11828;51.508;18.118;2023-07-30T11:21:54;45.40;21.00
23311;DHT22;11828;51.508;18.118;2023-07-30T11:24:33;45.40;21.70
23311;DHT22;11828;51.508;18.118;2023-07-30T11:27:00;45.60;21.10
23311;DHT22;11828;51.508;18.118;2023-07-30T11:29:27;45.60;21.10
23311;DHT22;11828;51.508;18.118;2023-07-30T11:31:57;45.60;21.00
23311;DHT22;11828;51.508;18.118;2023-07-30T11:34:26;45.60;21.20
23311;DHT22;11828;51.508;18.118;2023-07-30T11:36:54;45.50;21.10
23311;DHT22;11828;51.508;18.118;2023-07-30T11:39:21;45.40;21.10
23311;DHT22;11828;51.508;18.118;2023-07-30T11:41:48;45.30;20.80
23311;DHT22;11828;51.508;18.118;2023-07-30T11:44:35;44.90;20.90
23311;DHT22;11828;51.508;18.118;2023-07-30T11:47:04;44.40;20.70
23311;DHT22;11828;51.508;18.118;2023-07-30T11:49:31;44.20;21.20
23311;DHT22;11828;51.508;18.118;2023-07-30T11:52:10;44.00;21.40
23311;DHT22;11828;51.508;18.118;2023-07-30T11:54:37;43.60;21.60
23311;DHT22;11828;51.508;18.118;2023-07-30T11:57:03;43.60;22.00
23311;DHT22;11828;51.508;18.118;2023-07-30T11:59:31;43.40;22.20
23311;DHT22;11828;51.508;18.118;2023-07-30T12:01:57;43.30;22.30
23311;DHT22;11828;51.508;18.118;2023-07-30T12:04:23;43.20;22.50
23311;DHT22;11828;51.508;18.118;2023-07-30T12:06:51;43.00;22.40
23311;DHT22;11828;51.508;18.118;2023-07-30T12:09:23;42.70;22.50
23311;DHT22;11828;51.508;18.118;2023-07-30T12:11:52;42.40;22.70
23311;DHT22;11828;51.508;18.118;2023-07-30T12:14:29;42.10;23.00
23311;DHT22;11828;51.508;18.118;2023-07-30T12:17:09;41.80;23.20
23311;DHT22;11828;51.508;18.118;2023-07-30T12:19:35;41.60;23.60
23311;DHT22;11828;51.508;18.118;2023-07-30T12:22:02;41.40;23.70
23311;DHT22;11828;51.508;18.118;2023-07-30T12:24:29;41.30;23.90
23311;DHT22;11828;51.508;18.118;2023-07-30T12:26:55;41.10;24.20
23311;DHT22;11828;51.508;18.118;2023-07-30T12:29:21;41.10;24.40
23311;DHT22;11828;51.508;18.118;2023-07-30T12:31:47;41.00;24.50
23311;DHT22;11828;51.508;18.118;2023-07-30T12:34:14;41.00;24.70
23311;DHT22;11828;51.508;18.118;2023-07-30T12:36:40;41.10;24.90
23311;DHT22;11828;51.508;18.118;2023-07-30T12:39:07;41.00;24.90
23311;DHT22;11828;51.508;18.118;2023-07-30T12:41:33;41.00;24.90
23311;DHT22;11828;51.508;18.118;2023-07-30T12:44:00;40.90;25.00
23311;DHT22;11828;51.508;18.118;2023-07-30T12:46:26;40.80;24.90
23311;DHT22;11828;51.508;18.118;2023-07-30T12:48:56;40.90;25.30
23311;DHT22;11828;51.508;18.118;2023-07-30T12:51:22;40.90;25.00
23311;DHT22;11828;51.508;18.118;2023-07-30T12:53:48;41.10;25.00
23311;DHT22;11828;51.508;18.118;2023-07-30T12:56:15;41.20;25.40
23311;DHT22;11828;51.508;18.118;2023-07-30T12:58:41;41.10;24.70
23311;DHT22;11828;51.508;18.118;2023-07-30T13:01:07;41.10;25.40
23311;DHT22;11828;51.508;18.118;2023-07-30T13:03:34;41.00;25.00
23311;DHT22;11828;51.508;18.118;2023-07-30T13:06:20;41.00;25.10
23311;DHT22;11828;51.508;18.118;2023-07-30T13:08:47;40.80;25.20
23311;DHT22;11828;51.508;18.118;2023-07-30T13:11:13;40.80;25.20
23311;DHT22;11828;51.508;18.118;2023-07-30T13:13:39;40.80;25.20
23311;DHT22;11828;51.508;18.118;2023-07-30T13:16:05;40.90;25.40
23311;DHT22;11828;51.508;18.118;2023-07-30T13:18:32;40.90;25.40
23311;DHT22;11828;51.508;18.118;2023-07-30T13:20:58;41.10;25.50
23311;DHT22;11828;51.508;18.118;2023-07-30T13:23:25;41.00;25.30
23311;DHT22;11828;51.508;18.118;2023-07-30T13:25:51;40.90;25.20
23311;DHT22;11828;51.508;18.118;2023-07-30T13:28:17;40.70;25.30
23311;DHT22;11828;51.508;18.118;2023-07-30T13:30:43;40.60;25.60
23311;DHT22;11828;51.508;18.118;2023-07-30T13:33:09;40.50;25.60
23311;DHT22;11828;51.508;18.118;2023-07-30T13:35:35;40.30;25.60
23311;DHT22;11828;51.508;18.118;2023-07-30T13:38:02;40.20;25.70
23311;DHT22;11828;51.508;18.118;2023-07-30T13:40:28;40.20;25.90
23311;DHT22;11828;51.508;18.118;2023-07-30T13:42:54;40.00;26.00
23311;DHT22;11828;51.508;18.118;2023-07-30T13:45:20;40.10;26.20
23311;DHT22;11828;51.508;18.118;2023-07-30T13:47:46;40.30;26.10
23311;DHT22;11828;51.508;18.118;2023-07-30T13:50:12;40.50;25.90
23311;DHT22;11828;51.508;18.118;2023-07-30T13:52:39;40.50;25.90
23311;DHT22;11828;51.508;18.118;2023-07-30T13:55:05;40.50;25.90
23311;DHT22;11828;51.508;18.118;2023-07-30T13:57:31;40.50;25.90
23311;DHT22;11828;51.508;18.118;2023-07-30T13:59:57;40.50;26.10
23311;DHT22;11828;51.508;18.118;2023-07-30T14:02:23;40.40;26.20
23311;DHT22;11828;51.508;18.118;2023-07-30T14:04:49;40.40;26.40
23311;DHT22;11828;51.508;18.118;2023-07-30T14:07:16;40.40;26.60
23311;DHT22;11828;51.508;18.118;2023-07-30T14:09:42;40.30;26.90
23311;DHT22;11828;51.508;18.118;2023-07-30T14:12:09;40.20;27.20
23311;DHT22;11828;51.508;18.118;2023-07-30T14:14:35;40.00;27.20
23311;DHT22;11828;51.508;18.118;2023-07-30T14:17:01;40.00;27.20
23311;DHT22;11828;51.508;18.118;2023-07-30T14:19:32;39.90;27.40
23311;DHT22;11828;51.508;18.118;2023-07-30T14:21:59;39.80;27.70
23311;DHT22;11828;51.508;18.118;2023-07-30T14:24:25;39.80;27.80
23311;DHT22;11828;51.508;18.118;2023-07-30T14:26:52;39.80;27.70
23311;DHT22;11828;51.508;18.118;2023-07-30T14:29:18;39.90;27.60
23311;DHT22;11828;51.508;18.118;2023-07-30T14:31:44;39.80;27.50
23311;DHT22;11828;51.508;18.118;2023-07-30T14:34:10;39.90;27.60
23311;DHT22;11828;51.508;18.118;2023-07-30T14:36:36;40.30;27.50
23311;DHT22;11828;51.508;18.118;2023-07-30T14:39:02;41.10;27.10
23311;DHT22;11828;51.508;18.118;2023-07-30T14:41:29;41.90;26.60
23311;DHT22;11828;51.508;18.118;2023-07-30T14:43:55;42.60;25.60
23311;DHT22;11828;51.508;18.118;2023-07-30T14:46:21;43.00;25.00
23311;DHT22;11828;51.508;18.118;2023-07-30T14:48:48;43.30;24.60
23311;DHT22;11828;51.508;18.118;2023-07-30T14:51:15;43.20;24.20
23311;DHT22;11828;51.508;18.118;2023-07-30T14:53:41;43.00;24.30
23311;DHT22;11828;51.508;18.118;2023-07-30T14:56:09;42.70;24.40
23311;DHT22;11828;51.508;18.118;2023-07-30T14:58:34;42.30;24.40
23311;DHT22;11828;51.508;18.118;2023-07-30T15:01:01;41.90;24.50
23311;DHT22;11828;51.508;18.118;2023-07-30T15:03:27;41.50;24.80
23311;DHT22;11828;51.508;18.118;2023-07-30T15:05:53;41.10;25.00
23311;DHT22;11828;51.508;18.118;2023-07-30T15:08:20;40.70;25.30
23311;DHT22;11828;51.508;18.118;2023-07-30T15:10:46;40.40;25.70
23311;DHT22;11828;51.508;18.118;2023-07-30T15:13:12;40.10;26.10
23311;DHT22;11828;51.508;18.118;2023-07-30T15:15:39;39.80;26.50
23311;DHT22;11828;51.508;18.118;2023-07-30T15:18:05;39.60;26.80
23311;DHT22;11828;51.508;18.118;2023-07-30T15:20:34;39.50;27.10